createdAt,value
2018-07-23T00:00:45.035Z,93.74
2018-07-23T00:03:48.704Z,93.58
2018-07-23T00:06:52.236Z,93.41
2018-07-23T00:09:55.882Z,93.49
2018-07-23T00:12:58.217Z,93.31
2018-07-23T00:16:04.413Z,93.42
2018-07-23T00:19:06.698Z,93.37
2018-07-23T00:22:10.110Z,92.94
2018-07-23T00:25:12.440Z,93.16
2018-07-23T00:28:14.796Z,93.08
2018-07-23T00:31:17.361Z,93.31
2018-07-23T00:34:20.048Z,93.11
2018-07-23T00:37:23.167Z,92.79
2018-07-23T00:40:25.695Z,92.98
2018-07-23T00:43:28.315Z,93.29
2018-07-23T00:46:30.772Z,93.06
2018-07-23T00:49:33.322Z,93.00
2018-07-23T00:52:36.302Z,92.90
2018-07-23T00:55:38.866Z,93.04
2018-07-23T00:58:41.393Z,92.79
2018-07-23T01:01:43.838Z,92.81
2018-07-23T01:04:46.211Z,92.73
2018-07-23T01:07:48.664Z,93.25
2018-07-23T01:10:51.142Z,93.40
2018-07-23T01:13:53.611Z,93.47
2018-07-23T01:16:56.380Z,93.38
2018-07-23T01:19:59.470Z,94.20
2018-07-23T01:23:01.985Z,94.04
2018-07-23T01:26:04.506Z,94.23
2018-07-23T01:29:06.930Z,94.21
2018-07-23T01:32:09.535Z,93.94
2018-07-23T01:35:11.999Z,94.19
2018-07-23T01:38:14.583Z,94.52
2018-07-23T01:41:16.876Z,94.36
2018-07-23T01:44:20.376Z,94.68
2018-07-23T01:47:23.774Z,94.98
2018-07-23T01:50:27.176Z,94.99
2018-07-23T01:53:29.611Z,95.59
2018-07-23T01:56:31.902Z,95.76
2018-07-23T01:59:34.235Z,96.03
2018-07-23T02:02:36.576Z,96.83
2018-07-23T02:05:38.849Z,96.58
2018-07-23T02:08:41.430Z,96.45
2018-07-23T02:11:43.878Z,96.14
2018-07-23T02:14:46.308Z,97.08
2018-07-23T02:17:48.864Z,96.71
2018-07-23T02:20:51.669Z,96.25
2018-07-23T02:23:54.147Z,96.63
2018-07-23T02:26:56.568Z,96.66
2018-07-23T02:29:59.038Z,96.76
2018-07-23T02:33:01.446Z,96.33
2018-07-23T02:36:04.858Z,95.92
2018-07-23T02:39:09.590Z,96.39
2018-07-23T02:42:12.062Z,96.84
2018-07-23T02:45:16.604Z,96.45
2018-07-23T02:48:19.062Z,96.23
2018-07-23T02:51:21.495Z,95.90
2018-07-23T02:54:23.921Z,96.36
2018-07-23T02:57:26.407Z,96.70
2018-07-23T03:00:28.945Z,96.67
2018-07-23T03:03:31.552Z,96.11
2018-07-23T03:06:34.100Z,96.58
2018-07-23T03:09:36.611Z,96.47
2018-07-23T03:12:40.934Z,96.66
2018-07-23T03:15:43.292Z,96.26
2018-07-23T03:18:45.661Z,96.66
2018-07-23T03:21:48.108Z,95.35
2018-07-23T03:24:50.520Z,96.17
2018-07-23T03:27:56.776Z,96.75
2018-07-23T03:30:59.200Z,96.85
2018-07-23T03:34:02.686Z,97.44
2018-07-23T03:37:06.089Z,97.17
2018-07-23T03:40:08.531Z,96.87
2018-07-23T03:43:11.031Z,97.45
2018-07-23T03:46:13.460Z,97.32
2018-07-23T03:49:15.967Z,96.97
2018-07-23T03:52:18.438Z,96.78
2018-07-23T03:55:21.053Z,96.57
2018-07-23T03:58:23.540Z,96.16
2018-07-23T04:01:25.955Z,96.00
2018-07-23T04:04:28.350Z,95.86
2018-07-23T04:07:30.643Z,95.58
2018-07-23T04:10:34.017Z,95.24
2018-07-23T04:13:36.488Z,95.36
2018-07-23T04:16:38.923Z,94.95
2018-07-23T04:19:41.347Z,94.07
2018-07-23T04:22:43.780Z,94.23
2018-07-23T04:25:46.098Z,94.40
2018-07-23T04:28:48.599Z,93.47
2018-07-23T04:31:51.203Z,91.93
2018-07-23T04:34:53.532Z,88.35
2018-07-23T04:37:56.928Z,84.43
2018-07-23T04:40:59.338Z,82.04
2018-07-23T04:44:01.814Z,78.59
2018-07-23T04:47:04.483Z,78.91
2018-07-23T04:50:09.063Z,82.59
2018-07-23T04:53:11.485Z,84.50
2018-07-23T04:56:14.938Z,86.20
2018-07-23T04:59:17.421Z,87.33
2018-07-23T05:02:19.887Z,87.11
2018-07-23T05:05:23.232Z,87.56
2018-07-23T05:08:25.475Z,86.52
2018-07-23T05:11:27.827Z,84.51
2018-07-23T05:14:30.221Z,83.75
2018-07-23T05:17:32.650Z,78.20
2018-07-23T05:20:36.071Z,69.70
2018-07-23T05:23:38.396Z,65.49
2018-07-23T05:26:40.855Z,61.79
2018-07-23T05:29:43.389Z,57.78
2018-07-23T05:32:45.758Z,55.97
2018-07-23T05:35:48.165Z,54.71
2018-07-23T05:38:50.744Z,52.98
2018-07-23T05:41:53.125Z,51.41
2018-07-23T05:44:55.469Z,50.68
2018-07-23T05:47:57.903Z,50.42
2018-07-23T05:51:00.456Z,47.88
2018-07-23T05:54:03.030Z,46.18
2018-07-23T05:57:05.807Z,46.55
2018-07-23T06:00:08.567Z,45.65
2018-07-23T06:04:14.123Z,45.18
2018-07-23T06:07:16.654Z,43.70
2018-07-23T06:10:19.341Z,43.94
2018-07-23T06:13:21.985Z,43.07
2018-07-23T06:16:24.202Z,44.46
2018-07-23T06:19:26.560Z,44.21
2018-07-23T06:22:28.967Z,44.51
2018-07-23T06:25:31.384Z,48.76
2018-07-23T06:28:33.932Z,48.43
2018-07-23T06:31:36.535Z,45.88
2018-07-23T06:34:39.067Z,43.77
2018-07-23T06:37:41.619Z,44.03
2018-07-23T06:40:44.268Z,44.86
2018-07-23T06:43:48.920Z,42.40
2018-07-23T06:46:51.125Z,41.28
2018-07-23T06:49:54.537Z,41.24
2018-07-23T06:52:56.856Z,40.28
2018-07-23T06:55:59.369Z,39.79
2018-07-23T06:59:01.743Z,40.73
2018-07-23T07:02:04.476Z,42.39
2018-07-23T07:05:07.184Z,41.63
2018-07-23T07:08:09.719Z,41.72
2018-07-23T07:11:12.261Z,40.09
2018-07-23T07:14:14.664Z,39.42
2018-07-23T07:17:17.237Z,40.83
2018-07-23T07:20:19.536Z,41.21
2018-07-23T07:23:21.896Z,38.64
2018-07-23T07:26:25.319Z,44.91
2018-07-23T07:29:27.601Z,46.28
2018-07-23T07:32:30.058Z,46.32
2018-07-23T07:35:32.418Z,46.68
2018-07-23T07:38:35.719Z,45.56
2018-07-23T07:41:38.512Z,46.18
2018-07-23T07:44:40.969Z,47.63
2018-07-23T07:47:43.581Z,43.43
2018-07-23T07:50:48.113Z,44.82
2018-07-23T07:53:50.640Z,43.88
2018-07-23T07:56:53.164Z,42.21
2018-07-23T07:59:55.841Z,46.02
2018-07-23T08:02:58.328Z,41.76
2018-07-23T08:06:00.852Z,43.04
2018-07-23T08:09:05.519Z,42.47
2018-07-23T08:12:08.112Z,45.29
2018-07-23T08:15:10.516Z,47.24
2018-07-23T08:18:12.762Z,47.07
2018-07-23T08:21:16.159Z,47.09
2018-07-23T08:24:18.517Z,50.74
2018-07-23T08:27:20.846Z,50.85
2018-07-23T08:30:23.240Z,50.23
2018-07-23T08:33:25.596Z,48.20
2018-07-23T08:36:28.130Z,46.64
2018-07-23T08:39:30.552Z,46.98
2018-07-23T08:42:34.318Z,47.19
2018-07-23T08:45:37.861Z,46.65
2018-07-23T08:48:40.389Z,45.92
2018-07-23T08:51:42.648Z,47.11
2018-07-23T08:54:45.541Z,45.38
2018-07-23T08:57:47.863Z,45.75
2018-07-23T09:00:50.212Z,44.65
2018-07-23T09:03:52.499Z,45.10
2018-07-23T09:06:55.805Z,43.00
2018-07-23T09:11:42.034Z,44.67
2018-07-23T09:14:44.783Z,44.50
2018-07-23T09:17:47.046Z,43.05
2018-07-23T09:20:49.318Z,42.68
2018-07-23T09:23:51.631Z,43.94
2018-07-23T09:26:54.346Z,43.68
2018-07-23T09:29:56.692Z,43.20
2018-07-23T09:32:59.068Z,45.85
2018-07-23T09:36:01.393Z,43.71
2018-07-23T09:39:06.976Z,45.20
2018-07-23T09:42:09.355Z,43.07
2018-07-23T09:45:12.386Z,42.77
2018-07-23T09:48:14.663Z,41.55
2018-07-23T09:51:16.944Z,42.74
2018-07-23T09:54:19.298Z,43.24
2018-07-23T09:57:21.682Z,41.72
2018-07-23T10:01:30.374Z,41.15
2018-07-23T10:04:32.661Z,42.41
2018-07-23T10:07:36.114Z,41.84
2018-07-23T10:14:22.597Z,40.91
2018-07-23T10:17:25.346Z,41.47
2018-07-23T10:20:27.887Z,39.41
2018-07-23T10:23:30.426Z,40.39
2018-07-23T10:26:33.138Z,40.45
2018-07-23T10:29:35.721Z,39.30
2018-07-23T10:32:38.436Z,40.60
2018-07-23T10:35:40.805Z,40.11
2018-07-23T10:38:43.117Z,38.68
2018-07-23T10:41:45.575Z,38.19
2018-07-23T10:44:47.758Z,40.13
2018-07-23T10:47:50.097Z,39.00
2018-07-23T10:50:52.384Z,38.80
2018-07-23T10:53:54.696Z,40.97
2018-07-23T10:56:56.988Z,41.19
2018-07-23T10:59:59.261Z,40.58
2018-07-23T11:03:01.555Z,38.70
2018-07-23T11:06:04.058Z,37.82
2018-07-23T11:09:07.263Z,39.96
2018-07-23T11:12:09.612Z,39.63
2018-07-23T11:15:11.932Z,41.05
2018-07-23T11:18:14.208Z,40.58
2018-07-23T11:21:16.458Z,38.02
2018-07-23T11:24:18.859Z,36.79
2018-07-23T11:27:21.168Z,35.52
2018-07-23T11:30:23.626Z,35.91
2018-07-23T11:33:25.835Z,36.16
2018-07-23T11:36:28.271Z,37.21
2018-07-23T11:39:30.622Z,36.67
2018-07-23T11:42:32.890Z,39.35
2018-07-23T11:45:35.162Z,39.43
2018-07-23T11:48:37.493Z,39.15
2018-07-23T11:51:39.714Z,38.19
2018-07-23T11:54:42.407Z,36.91
2018-07-23T11:57:45.689Z,37.40
2018-07-23T12:00:47.972Z,38.09
2018-07-23T12:03:50.290Z,36.91
2018-07-23T12:06:52.582Z,38.32
2018-07-23T12:09:54.958Z,36.85
2018-07-23T12:12:57.182Z,35.54
2018-07-23T12:15:59.394Z,33.73
2018-07-23T12:19:01.844Z,35.32
2018-07-23T12:22:04.081Z,36.28
2018-07-23T12:25:06.460Z,37.26
2018-07-23T12:28:08.785Z,35.32
2018-07-23T12:31:11.134Z,34.76
2018-07-23T12:34:13.397Z,35.19
2018-07-23T12:37:15.731Z,34.49
2018-07-23T12:40:18.090Z,34.57
2018-07-23T12:43:20.627Z,33.81
2018-07-23T12:46:23.019Z,35.31
2018-07-23T12:49:26.341Z,35.94
2018-07-23T12:52:29.454Z,34.14
2018-07-23T12:55:31.749Z,36.73
2018-07-23T12:58:34.416Z,37.96
2018-07-23T13:01:36.813Z,39.18
2018-07-23T13:04:40.085Z,39.42
2018-07-23T13:07:42.471Z,39.62
2018-07-23T13:10:44.740Z,40.17
2018-07-23T13:13:47.026Z,40.50
2018-07-23T13:16:49.464Z,39.57
2018-07-23T13:19:51.761Z,39.75
2018-07-23T13:22:54.078Z,41.10
2018-07-23T13:25:56.386Z,41.43
2018-07-23T13:28:58.734Z,41.00
2018-07-23T13:32:01.060Z,38.86
2018-07-23T13:35:03.653Z,38.91
2018-07-23T13:38:06.022Z,37.83
2018-07-23T13:41:08.422Z,37.37
2018-07-23T13:44:11.579Z,36.28
2018-07-23T13:47:13.854Z,38.32
2018-07-23T13:50:16.186Z,38.43
2018-07-23T13:53:18.585Z,35.21
2018-07-23T13:56:21.103Z,37.16
2018-07-23T13:59:23.480Z,36.12
2018-07-23T14:02:25.810Z,36.95
2018-07-23T14:05:28.087Z,36.96
2018-07-23T14:08:30.414Z,39.49
2018-07-23T14:11:32.768Z,38.47
2018-07-23T14:14:35.272Z,37.50
2018-07-23T14:17:37.674Z,35.90
2018-07-23T14:20:40.199Z,36.86
2018-07-23T14:23:42.556Z,36.53
2018-07-23T14:26:44.801Z,37.67
2018-07-23T14:29:47.037Z,38.97
2018-07-23T14:32:49.315Z,39.72
2018-07-23T14:35:51.639Z,38.57
2018-07-23T14:38:54.012Z,36.93
2018-07-23T14:41:56.304Z,36.99
2018-07-23T14:44:58.892Z,37.04
2018-07-23T14:48:01.254Z,35.28
2018-07-23T14:51:03.645Z,35.15
2018-07-23T14:54:06.214Z,34.99
2018-07-23T14:57:08.482Z,37.16
2018-07-23T15:00:10.905Z,37.46
2018-07-23T15:03:13.310Z,38.52
2018-07-23T15:06:15.633Z,39.43
2018-07-23T15:09:17.982Z,39.82
2018-07-23T15:12:20.214Z,40.19
2018-07-23T15:15:22.559Z,39.62
2018-07-23T15:18:24.880Z,40.44
2018-07-23T15:21:27.190Z,40.24
2018-07-23T15:24:29.474Z,40.63
2018-07-23T15:27:31.830Z,41.72
2018-07-23T15:30:34.072Z,40.35
2018-07-23T15:33:36.384Z,40.65
2018-07-23T15:36:38.770Z,41.26
2018-07-23T15:39:41.069Z,40.84
2018-07-23T15:42:43.385Z,41.16
2018-07-23T15:45:45.841Z,40.86
2018-07-23T15:48:47.922Z,41.40
2018-07-23T15:51:50.224Z,42.45
2018-07-23T15:54:52.602Z,41.87
2018-07-23T15:57:54.893Z,42.00
2018-07-23T16:00:57.221Z,40.88
2018-07-23T16:03:59.520Z,40.52
2018-07-23T16:07:01.801Z,39.94
2018-07-23T16:10:04.116Z,40.51
2018-07-23T16:13:06.407Z,40.68
2018-07-23T16:16:08.653Z,40.11
2018-07-23T16:19:10.932Z,38.14
2018-07-23T16:22:13.224Z,37.31
2018-07-23T16:25:15.473Z,37.99
2018-07-23T16:28:17.744Z,36.88
2018-07-23T16:31:20.115Z,36.38
2018-07-23T16:34:22.376Z,34.77
2018-07-23T16:37:24.695Z,36.15
2018-07-23T16:40:26.987Z,33.99
2018-07-23T16:43:29.353Z,34.47
2018-07-23T16:46:31.618Z,35.50
2018-07-23T16:49:33.986Z,36.45
2018-07-23T16:52:36.244Z,36.66
2018-07-23T16:55:38.587Z,36.89
2018-07-23T16:58:40.846Z,36.69
2018-07-23T17:01:45.784Z,37.03
2018-07-23T17:04:48.127Z,36.09
2018-07-23T17:07:50.455Z,35.09
2018-07-23T17:10:52.797Z,33.98
2018-07-23T17:13:55.030Z,35.05
2018-07-23T17:16:57.322Z,36.94
2018-07-23T17:19:59.669Z,34.62
2018-07-23T17:23:02.077Z,35.65
2018-07-23T17:26:04.445Z,34.37
2018-07-23T17:29:06.744Z,35.73
2018-07-23T17:32:09.359Z,34.69
2018-07-23T17:35:11.731Z,35.09
2018-07-23T17:38:14.031Z,36.71
2018-07-23T17:41:16.441Z,37.06
2018-07-23T17:44:19.017Z,36.73
2018-07-23T17:47:21.345Z,37.76
2018-07-23T17:50:23.581Z,37.55
2018-07-23T17:53:25.918Z,37.00
2018-07-23T17:56:28.240Z,39.04
2018-07-23T17:59:30.466Z,38.98
2018-07-23T18:02:32.777Z,39.32
2018-07-23T18:05:35.013Z,38.76
2018-07-23T18:08:37.359Z,39.04
2018-07-23T18:11:39.717Z,39.62
2018-07-23T18:14:42.140Z,39.69
2018-07-23T18:17:44.543Z,39.94
2018-07-23T18:20:47.025Z,40.06
2018-07-23T18:23:49.239Z,40.23
2018-07-23T18:26:51.484Z,41.09
2018-07-23T18:29:53.717Z,42.67
2018-07-23T18:32:55.930Z,43.10
2018-07-23T18:35:58.219Z,43.33
2018-07-23T18:39:00.603Z,43.71
2018-07-23T18:42:02.956Z,44.25
2018-07-23T18:45:05.730Z,44.42
2018-07-23T18:48:19.375Z,45.12
2018-07-23T18:51:31.099Z,45.87
2018-07-23T18:54:33.974Z,46.94
2018-07-23T18:57:36.166Z,47.89
2018-07-23T19:00:38.469Z,48.11
2018-07-23T19:03:40.862Z,49.07
2018-07-23T19:06:43.193Z,49.87
2018-07-23T19:09:45.666Z,51.59
2018-07-23T19:12:48.510Z,53.33
2018-07-23T19:15:50.881Z,54.58
2018-07-23T19:18:53.245Z,55.28
2018-07-23T19:21:55.548Z,56.74
2018-07-23T19:24:57.954Z,58.64
2018-07-23T19:28:00.282Z,59.92
2018-07-23T19:31:02.540Z,60.72
2018-07-23T19:34:05.289Z,62.09
2018-07-23T19:37:07.797Z,61.55
2018-07-23T19:40:10.003Z,61.65
2018-07-23T19:43:12.509Z,62.78
2018-07-23T19:46:14.862Z,63.05
2018-07-23T19:49:17.161Z,63.87
2018-07-23T19:52:19.563Z,65.12
2018-07-23T19:55:21.929Z,64.37
2018-07-23T19:58:24.243Z,64.80
2018-07-23T20:01:26.489Z,65.99
2018-07-23T20:04:28.731Z,66.83
2018-07-23T20:07:31.069Z,66.36
2018-07-23T20:10:33.361Z,66.89
2018-07-23T20:13:35.659Z,67.66
2018-07-23T20:16:38.018Z,68.39
2018-07-23T20:19:40.357Z,67.95
2018-07-23T20:22:42.616Z,68.46
2018-07-23T20:25:44.955Z,68.20
2018-07-23T20:28:47.384Z,68.08
2018-07-23T20:31:49.757Z,67.98
2018-07-23T20:34:51.985Z,68.76
2018-07-23T20:37:54.395Z,69.17
2018-07-23T20:40:56.578Z,69.58
2018-07-23T20:43:58.932Z,70.18
2018-07-23T20:47:01.266Z,70.13
2018-07-23T20:50:03.827Z,71.03
2018-07-23T20:53:06.153Z,70.93
2018-07-23T20:56:08.423Z,70.79
2018-07-23T20:59:10.669Z,71.38
2018-07-23T21:02:12.973Z,71.64
2018-07-23T21:05:15.244Z,71.18
2018-07-23T21:08:17.573Z,71.70
2018-07-23T21:11:19.844Z,71.81
2018-07-23T21:14:22.073Z,72.20
2018-07-23T21:17:24.357Z,72.14
2018-07-23T21:20:26.668Z,72.68
2018-07-23T21:23:28.905Z,73.01
2018-07-23T21:26:31.250Z,73.21
2018-07-23T21:29:33.537Z,73.64
2018-07-23T21:32:35.845Z,73.75
2018-07-23T21:35:38.193Z,75.01
2018-07-23T21:38:40.458Z,75.12
2018-07-23T21:41:42.732Z,75.52
2018-07-23T21:44:45.090Z,76.45
2018-07-23T21:51:53.118Z,76.56
2018-07-23T21:54:55.381Z,76.63
2018-07-23T21:57:57.667Z,78.54
2018-07-23T22:00:59.989Z,78.90
2018-07-23T22:04:02.293Z,79.13
2018-07-23T22:07:04.716Z,79.61
2018-07-23T22:10:07.973Z,79.98
2018-07-23T22:13:10.526Z,79.24
2018-07-23T22:16:12.795Z,79.66
2018-07-23T22:19:15.090Z,79.43
2018-07-23T22:22:17.457Z,79.09
2018-07-23T22:25:19.683Z,78.80
2018-07-23T22:28:22.131Z,78.56
2018-07-23T22:31:24.405Z,79.38
2018-07-23T22:34:26.695Z,79.50
2018-07-23T22:37:29.269Z,79.14
2018-07-23T22:40:31.706Z,80.06
2018-07-23T22:43:34.079Z,80.20
2018-07-23T22:46:36.545Z,79.83
2018-07-23T22:49:38.893Z,80.18
2018-07-23T22:52:41.246Z,80.47
2018-07-23T22:55:43.604Z,80.27
2018-07-23T22:58:45.892Z,80.77
2018-07-23T23:01:48.253Z,80.11
2018-07-23T23:04:50.516Z,80.82
2018-07-23T23:07:52.866Z,80.17
2018-07-23T23:10:55.193Z,80.41
2018-07-23T23:13:57.554Z,80.82
2018-07-23T23:16:59.841Z,81.88
2018-07-23T23:20:02.255Z,81.42
2018-07-23T23:23:04.501Z,82.19
2018-07-23T23:26:06.809Z,81.95
2018-07-23T23:29:09.118Z,82.72
2018-07-23T23:32:11.959Z,82.86
2018-07-23T23:35:20.927Z,82.22
2018-07-23T23:38:23.142Z,82.37
2018-07-23T23:41:25.538Z,83.04
2018-07-23T23:44:27.867Z,84.38
2018-07-23T23:47:30.281Z,85.35
2018-07-23T23:50:32.666Z,85.04
2018-07-23T23:53:35.098Z,86.05
2018-07-23T23:56:37.452Z,85.13
2018-07-23T23:59:40.144Z,85.33
